AirNav   Bose Proflight Series 2 Wireless viation Headset
 
 930 users online  

3VS Roy Otten Memorial Airfield
Versailles, Missouri, USA

GOING TO VERSAILLES?


FAA INFORMATION EFFECTIVE 10 OCTOBER 2019

Location

FAA Identifier: 3VS
Lat/Long: 38-25-41.8000N 092-52-31.0000W
38-25.696667N 092-52.516667W
38.4282778,-92.8752778
(estimated)
Elevation: 1027 ft. / 313 m (estimated)
Variation: 04E (1985)
From city: 2 miles W of VERSAILLES, MO
Time zone: UTC -5 (UTC -6 during Standard Time)
Zip code: 65084

Airport Operations

Airport use: Open to the public
Activation date: 03/1971
Control tower: no
ARTCC: KANSAS CITY CENTER
FSS: COLUMBIA FLIGHT SERVICE STATION
NOTAMs facility: COU (NOTAM-D service available)
Attendance: 0800-1700
Wind indicator: lighted
Segmented circle: yes
Lights: ACTVT LIRL RY 07/25 - CTAF, CLICK 3 TIMES.
Beacon: white-green (lighted land airport)
Operates sunset to sunrise.

Airport Communications

CTAF/UNICOM: 122.8

Nearby radio navigation aids

VOR radial/distance  VOR name  Freq  Var
SHYr331/26.6SUNSHINE VOR/DME108.4000E
COUr233/38.4COLUMBIA VOR/DME110.2000E

 
NDB name  Hdg/Dist  Freq  Var  ID
SEDALIA137/21.828103EDMO -.. -- ---
GOLDEN VALLEY083/38.338801EGLY --. .-.. -.--

Airport Services

Fuel available: 100LL
FUEL AVBL 24 HRS SELF-SVC.
Parking: hangars and tiedowns
Airframe service: MAJOR
Powerplant service: MAJOR
Bottled oxygen: NONE
Bulk oxygen: NONE

Runway Information

Runway 7/25

Dimensions: 2805 x 39 ft. / 855 x 12 m
WIDTH VARIANCE 39-40 FT.
Surface: asphalt, in good condition
Runway edge lights: non-standard
NSTD LIRL; THLD LGTS SPACED INCORRECTLY; THLD & EDGE LGTS PLACED 11-18 FT FM RY EDGE.
Gradient: 0.9% UP W.
RUNWAY 7  RUNWAY 25
Latitude: 38-25.627500N38-25.765167N
Longitude: 092-52.796333W092-52.235333W
Elevation: 1027.0 ft.1003.0 ft.
Traffic pattern: leftright
Markings: basic, in good conditionbasic, in good condition
Obstructions: 63 ft. trees, 631 ft. from runway, 87 ft. right of centerline, 6:1 slope to clear45 ft. trees, 800 ft. from runway, 180 ft. left and right of centerline, 13:1 slope to clear
8 FT ROAD 105-200 FT FM RWY END 40-125L;

Helipad H1

Dimensions: 50 x 50 ft. / 15 x 15 m
Surface: concrete, in good condition
Runway edge lights: PERI
Traffic pattern: leftleft
Markings: basic, in good condition

Airport Ownership and Management from official FAA records

Ownership: Publicly-owned
Owner: CITY OF VERSAILLES
104 N. FISHER ST.
VERSAILLES, MO 65084
Phone 573-378-4634
Manager: BILL FORESTER
10998 HWY 52
VERSAILLES, MO 65084
Phone (573) 836-0506
AMGR CELL: 573-836-0506

Airport Operational Statistics

Aircraft based on the field: 26
Single engine airplanes: 24
Multi engine airplanes: 1
Helicopters: 1
    
Aircraft operations: avg 22/day *
49% transient general aviation
49% local general aviation
2% military
* for 12-month period ending 31 December 2018

Additional Remarks

CROP DUSTING ACFT AND HELICOPTERS; AND ULTRALIGHT ACTIVITY ON AND INVOF ARPT.
DEER & WILDLIFE ON & INVOF ARPT.
RY 07/25 LINE OF SIGHT OBSTRUCTED BY GRADE CHANGE IN RY.
NTSD RY SAFETY AREA BYND EACH RY END; INCORRECT TERRAIN GRADES, LARGE DROP OFF AT RY 07 END, ROAD AT RY 25 END.
FOR CD CTC WHITEMAN APCH AT 660-687-3132. WHEN WHITEMAN APCH IS CLSD, CTC KANSAS CITY ARTCC AT 913-254-8508.

Instrument Procedures

There are no published instrument procedures at 3VS.

Some nearby airports with instrument procedures:

H79 - Eldon Model Airpark (15 nm E)
K15 - Grand Glaize-Osage Beach Airport (21 nm SE)
KDMO - Sedalia Regional Airport (22 nm NW)
KRAW - Warsaw Municipal Airport (23 nm W)
KAIZ - Lee C Fine Memorial Airport (25 nm SE)
 
Loc | Ops | Rwys | IFR | FBO | Links
Com | Nav | Svcs | Stats | Notes

Kansas City Aviation Department
 
Area around 3VS (Roy Otten Memorial Airfield)
 
Road maps at: MapQuest Bing Google
 
Aerial photo
WARNING: Photo may not be current or correct
Aerial photo of 3VS (Roy Otten Memorial Airfield)
Do you have a better or more recent aerial photo of Roy Otten Memorial Airfield that you would like to share? If so, please send us your photo.

 
Sectional chart

 
Airport distance calculator
Flying to Roy Otten Memorial Airfield? Find the distance to fly.

From to 3VS

Sunrise and sunset
Times for 19-Oct-2019
 Local
(UTC-5)
 Zulu
(UTC)
Morning civil twilight06:5911:59
Sunrise07:2512:25
Sunset18:2823:28
Evening civil twilight18:5423:54

Current date and time
Zulu (UTC)  19-Oct-2019 19:09:02
Local (UTC-5)  19-Oct-2019 14:09:02
 
METAR
KDMO 
22nm NW 
191853Z AUTO 24005KT 10SM FEW008 OVC038 13/12 A2980 RMK AO2 RAE23 SLP088 P0001 T01330117
KAIZ 
25nm SE 
191856Z AUTO VRB03KT 10SM RA FEW026 SCT049 OVC090 14/12 A2979 RMK AO2 RAE13B33 SLP086 P0004 T01390122
KOZS 
29nm S 
191855Z AUTO 27004KT 10SM -RA BKN023 BKN048 OVC075 14/12 A2979 RMK AO2 P0003
KSZL 
35nm NW 
191856Z 00000KT 10SM BKN045 14/14 A2974 RMK AO2A SLP073 T01410141 $
KJEF 
36nm E 
191857Z 00000KT 1 3/4SM -RA FEW025 SCT036 OVC065 15/10 A2977 RMK AO2 P0003 T01500100
KGLY 
38nm W 
191835Z AUTO 00000KT 10SM FEW010 BKN043 OVC050 14/12 A2979 RMK AO2
KCOU 
39nm NE 
191854Z 23004KT 5SM RA BR FEW019 BKN080 OVC095 13/11 A2978 RMK AO2 SLP085 P0005 T01280111 $
KMHL 
43nm N 
191855Z AUTO 29003KT 10SM BKN011 OVC027 12/11 A2980 RMK AO2 TSNO PWINO
TAF
KSZL 
35nm NW 
191100Z 1911/2017 15009KT 9999 SCT150 QNH2973INS TEMPO 1914/1918 19010G15KT 8000 -SHRA BKN020 OVC050 BECMG 1917/1918 VRB06KT 9999 BKN020 BKN040 QNH2976INS BECMG 2005/2006 VRB06KT 9999 SCT030 QNH2983INS BECMG 2010/2011 VRB06KT 3200 BR OVC009 QNH2983INS BECMG 2014/2015 13009KT 9999 SCT030 QNH2976INS TX14/1920Z TN06/2010Z
KCOU 
39nm NE 
191722Z 1918/2018 25008KT P6SM VCSH SCT025 BKN060 TEMPO 1918/1921 -SHRA FM192200 VRB03KT P6SM BKN025 FM200200 VRB04KT P6SM BKN035 FM200900 00000KT 4SM BR SCT060 FM201400 VRB04KT P6SM SCT080
NOTAMs
Click for the latest NOTAMs
NOTAMs are issued by the DoD/FAA and will open in a separate window not controlled by AirNav.

 

 
 

FBO, Fuel Providers, and Aircraft Ground Support

  
 Business Name 
 
 Contact 
 
 Services / Description 
 
Fuel Prices
 
Comments
  
Forester Aviation 573-836-0506
no information available

If you are affiliated with Forester Aviation and would like to show here your services, contact info, web link, logo, and more, click here
100LL
SS $4.50 
 Updated 12-Jul-2019
 
   write
SS=Self service
Update Fuel Prices
 

Would you like to see your business listed on this page?

 If your business provides an interesting product or service to pilots, flight crews, aircraft, or users of the Roy Otten Memorial Airfield, you should consider listing it here.  To start the listing process, click on the button below
 
Add a business
 

Other Pages about Roy Otten Memorial Airfield

Update a link
 
Copyright © AirNav, LLC. All rights reserved. Privacy Policy  Contact